CheckWX is a tool to help pilots better visualize weather data.  It is not intended as a substitute for an official pre-flight weather briefing.

13:54:49 UTC

VTSS METAR
Hat Yai International Airport
Hat Yai, Thailand
Current

25 mins ago

VTSS 151330Z VRB02KT 9999 -RA FEW020 SCT028 BKN100 24/23 Q1011 NOSIG
Observed
Sep-15 @ 13:30 UTC
Wind
  • Variable at 2 KTS
Visibility
10,000+ meters
Flight Rules
VFR
Conditions
Light Rain
Cloud Levels
  • Few at 2,000' AGL
  • Scattered at 2,800' AGL
  • Broken at 10,000' AGL
Temperature
24°C / 75°F
Dewpoint
23°C / 73°F
Humidity
94%
Altimeter
29.85" Hg
Pressure
1010.92 hPa
Previous

55 mins ago

VTSS 151300Z 12003KT 090V150 9000 -RA FEW020 SCT028 BKN100 24/23 Q1010 NOSIG
Observed
Sep-15 @ 13:00 UTC
Wind
  • 120° at 3 KTS
Visibility
9,000 meters
Flight Rules
VFR
Conditions
Light Rain
Cloud Levels
  • Few at 2,000' AGL
  • Scattered at 2,800' AGL
  • Broken at 10,000' AGL
Temperature
24°C / 75°F
Dewpoint
23°C / 73°F
Humidity
94%
Altimeter
29.82" Hg
Pressure
1009.92 hPa
Previous

1 hour ago

VTSS 151230Z 12004KT 090V150 9000 -RA FEW020 SCT028 BKN100 24/23 Q1010 NOSIG
Observed
Sep-15 @ 12:30 UTC
Wind
  • 120° at 4 KTS
Visibility
9,000 meters
Flight Rules
VFR
Conditions
Light Rain
Cloud Levels
  • Few at 2,000' AGL
  • Scattered at 2,800' AGL
  • Broken at 10,000' AGL
Temperature
24°C / 75°F
Dewpoint
23°C / 73°F
Humidity
94%
Altimeter
29.82" Hg
Pressure
1009.92 hPa